Chicago, Illinois
Traffic Map
Current Weather Conditions
Chicago, Illinois
Overcast Light Rain
Overcast
13°
Feels Like: 13°
Wind Chill: 13° Ceiling: 6000
Heat Index: 13° Visibility: 2mi
Dew Point: 12° Wind: 12mph
Humidity: 96% Direction: 30° (NNE)
Pressure: 29.59in Gusts: 0mph
Raw Report DataKMDW 240953Z 03010KT 2SM -RA BR BKN060 OVC070 13/12 A2959 RMK AO2 SLP020 P0014 T01280122
Traffic Incident Summary
Active as of:
Severity:
Category:
InformationThere was an issue retrieving the traffic information for this location. Please try a different location or try again shortly.
Advertisements
Track Severe Weather on mobile